createdAt,value
2022-08-01T00:02:10.005Z,100158.80
2022-08-01T00:04:41.126Z,100158.80
2022-08-01T00:07:10.024Z,100153.39
2022-08-01T00:09:38.963Z,100154.52
2022-08-01T00:12:08.480Z,100155.08
2022-08-01T00:14:37.515Z,100159.62
2022-08-01T00:17:07.593Z,100162.26
2022-08-01T00:19:36.818Z,100169.14
2022-08-01T00:22:06.044Z,100173.98
2022-08-01T00:24:35.379Z,100168.95
2022-08-01T00:27:04.668Z,100169.70
2022-08-01T00:30:11.427Z,100168.36
2022-08-01T00:32:22.395Z,100169.00
2022-08-01T00:34:51.332Z,100166.96
2022-08-01T00:37:20.254Z,100158.34
2022-08-01T00:39:49.061Z,100157.34
2022-08-01T00:42:17.889Z,100154.64
2022-08-01T00:44:48.156Z,100153.51
2022-08-01T00:47:17.260Z,100149.66
2022-08-01T00:49:46.151Z,100148.63
2022-08-01T00:52:15.007Z,100142.59
2022-08-01T00:54:44.534Z,100144.71
2022-08-01T00:57:15.049Z,100145.91
2022-08-01T00:59:44.164Z,100141.21
2022-08-01T01:02:15.030Z,100139.42
2022-08-01T01:04:44.806Z,100134.70
2022-08-01T01:07:20.238Z,100135.29
2022-08-01T01:09:58.147Z,100134.42
2022-08-01T01:12:37.421Z,100135.48
2022-08-01T01:15:14.565Z,100134.25
2022-08-01T01:17:50.901Z,100135.27
2022-08-01T01:20:28.031Z,100135.22
2022-08-01T01:23:11.437Z,100134.73
2022-08-01T01:26:05.968Z,100139.55
2022-08-01T01:28:42.884Z,100138.38
2022-08-01T01:31:14.391Z,100139.55
2022-08-01T01:33:47.241Z,100138.48
2022-08-01T01:36:19.246Z,100137.54
2022-08-01T01:38:49.104Z,100134.57
2022-08-01T01:41:19.245Z,100133.81
2022-08-01T01:43:49.370Z,100126.75
2022-08-01T01:46:23.108Z,100126.77
2022-08-01T01:48:52.864Z,100134.27
2022-08-01T01:51:23.763Z,100136.46
2022-08-01T01:53:54.807Z,100137.59
2022-08-01T01:56:24.945Z,100132.72
2022-08-01T01:58:57.272Z,100128.98
2022-08-01T02:02:06.033Z,100129.82
2022-08-01T02:04:20.946Z,100134.05
2022-08-01T02:06:52.168Z,100131.95
2022-08-01T02:09:24.157Z,100129.76
2022-08-01T02:12:07.385Z,100129.91
2022-08-01T02:14:38.243Z,100130.45
2022-08-01T02:17:07.244Z,100129.00
2022-08-01T02:19:38.033Z,100122.48
2022-08-01T02:22:11.342Z,100118.92
2022-08-01T02:24:44.438Z,100119.30
2022-08-01T02:27:16.815Z,100111.22
2022-08-01T02:29:50.904Z,100113.16
2022-08-01T02:32:25.550Z,100113.32
2022-08-01T02:34:57.933Z,100107.63
2022-08-01T02:37:30.201Z,100110.79
2022-08-01T02:40:00.491Z,100108.78
2022-08-01T02:42:30.708Z,100106.08
2022-08-01T02:45:00.955Z,100103.27
2022-08-01T02:47:33.024Z,100105.89
2022-08-01T02:50:03.148Z,100106.09
2022-08-01T02:52:33.779Z,100106.47
2022-08-01T02:55:03.693Z,100104.27
2022-08-01T02:57:42.714Z,100106.73
2022-08-01T03:00:24.749Z,100103.58
2022-08-01T03:02:56.871Z,100105.33
2022-08-01T03:05:28.243Z,100103.38
2022-08-01T03:08:02.638Z,100106.96
2022-08-01T03:10:33.870Z,100111.63
2022-08-01T03:13:04.018Z,100112.25
2022-08-01T03:15:36.760Z,100112.48
2022-08-01T03:18:08.933Z,100111.93
2022-08-01T03:20:38.283Z,100112.38
2022-08-01T03:23:09.619Z,100107.94
2022-08-01T03:25:41.554Z,100105.52
2022-08-01T03:28:13.237Z,100110.70
2022-08-01T03:30:43.542Z,100118.66
2022-08-01T03:33:14.486Z,100119.54
2022-08-01T03:35:49.517Z,100120.77
2022-08-01T03:38:22.612Z,100121.58
2022-08-01T03:40:57.124Z,100122.30
2022-08-01T03:43:32.547Z,100125.75
2022-08-01T03:46:08.116Z,100125.02
2022-08-01T03:48:41.749Z,100124.70
2022-08-01T03:51:11.543Z,100126.35
2022-08-01T03:53:42.500Z,100124.34
2022-08-01T03:56:13.020Z,100121.83
2022-08-01T03:58:44.184Z,100116.99
2022-08-01T04:01:19.839Z,100114.48
2022-08-01T04:03:49.847Z,100113.55
2022-08-01T04:06:18.783Z,100110.42
2022-08-01T04:08:55.787Z,100112.96
2022-08-01T04:11:26.102Z,100115.06
2022-08-01T04:13:55.730Z,100110.89
2022-08-01T04:16:24.699Z,100109.52
2022-08-01T04:18:53.818Z,100109.20
2022-08-01T04:21:28.032Z,100114.25
2022-08-01T04:24:00.117Z,100117.39
2022-08-01T04:26:30.737Z,100113.65
2022-08-01T04:29:01.606Z,100111.27
2022-08-01T04:31:31.586Z,100114.23
2022-08-01T04:34:05.392Z,100117.52
2022-08-01T04:36:36.652Z,100122.48
2022-08-01T04:39:08.488Z,100124.56
2022-08-01T04:41:39.546Z,100121.33
2022-08-01T04:44:08.921Z,100117.05
2022-08-01T04:46:39.487Z,100115.45
2022-08-01T04:49:09.914Z,100114.51
2022-08-01T04:51:51.380Z,100113.23
2022-08-01T04:54:21.895Z,100108.59
2022-08-01T04:56:51.482Z,100112.06
2022-08-01T04:59:39.059Z,100110.07
2022-08-01T05:02:09.211Z,100107.75
2022-08-01T05:04:39.063Z,100107.98
2022-08-01T05:07:08.774Z,100106.17
2022-08-01T05:09:38.140Z,100107.20
2022-08-01T05:12:09.686Z,100111.26
2022-08-01T05:14:38.706Z,100113.42
2022-08-01T05:17:09.146Z,100113.23
2022-08-01T05:19:39.504Z,100119.02
2022-08-01T05:22:09.688Z,100124.90
2022-08-01T05:24:40.296Z,100124.17
2022-08-01T05:27:10.503Z,100124.84
2022-08-01T05:29:44.714Z,100126.45
2022-08-01T05:32:14.011Z,100130.73
2022-08-01T05:34:44.209Z,100128.19
2022-08-01T05:37:13.045Z,100125.98
2022-08-01T05:39:41.849Z,100126.21
2022-08-01T05:42:10.797Z,100125.03
2022-08-01T05:44:39.677Z,100121.48
2022-08-01T05:47:08.640Z,100127.88
2022-08-01T05:49:37.794Z,100128.60
2022-08-01T05:52:08.034Z,100134.58
2022-08-01T05:54:37.312Z,100134.96
2022-08-01T05:57:06.293Z,100133.09
2022-08-01T05:59:35.264Z,100133.74
2022-08-01T06:02:04.531Z,100130.71
2022-08-01T06:04:34.018Z,100129.85
2022-08-01T06:07:02.885Z,100132.03
2022-08-01T06:09:31.715Z,100125.31
2022-08-01T06:12:00.572Z,100129.86
2022-08-01T06:14:29.555Z,100135.27
2022-08-01T06:16:58.823Z,100133.98
2022-08-01T06:19:27.800Z,100131.21
2022-08-01T06:21:56.650Z,100133.67
2022-08-01T06:24:25.430Z,100133.73
2022-08-01T06:26:54.272Z,100138.06
2022-08-01T06:29:23.158Z,100141.99
2022-08-01T06:31:51.948Z,100141.54
2022-08-01T06:34:21.972Z,100142.16
2022-08-01T06:36:50.820Z,100143.30
2022-08-01T06:39:19.684Z,100143.24
2022-08-01T06:41:48.442Z,100148.84
2022-08-01T06:44:17.549Z,100148.63
2022-08-01T06:46:46.331Z,100151.14
2022-08-01T06:49:15.156Z,100151.33
2022-08-01T06:51:44.049Z,100155.85
2022-08-01T06:54:12.830Z,100156.27
2022-08-01T06:56:41.643Z,100153.43
2022-08-01T06:59:10.794Z,100150.45
2022-08-01T07:01:39.712Z,100147.06
2022-08-01T07:04:08.569Z,100146.50
2022-08-01T07:06:37.434Z,100144.95
2022-08-01T07:09:09.651Z,100132.89
2022-08-01T07:11:41.249Z,100140.89
2022-08-01T07:14:10.151Z,100140.09
2022-08-01T07:16:39.135Z,100139.75
2022-08-01T07:19:08.442Z,100140.42
2022-08-01T07:21:40.690Z,100142.70
2022-08-01T07:24:14.445Z,100145.29
2022-08-01T07:26:54.106Z,100146.77
2022-08-01T07:29:25.608Z,100149.42
2022-08-01T07:31:55.763Z,100151.44
2022-08-01T07:34:26.068Z,100148.06
2022-08-01T07:36:55.116Z,100154.39
2022-08-01T07:39:24.170Z,100160.70
2022-08-01T07:42:07.796Z,100164.36
2022-08-01T07:44:37.507Z,100158.91
2022-08-01T07:47:07.228Z,100158.63
2022-08-01T07:49:40.258Z,100158.23
2022-08-01T07:52:10.240Z,100165.51
2022-08-01T07:54:39.287Z,100165.34
2022-08-01T07:57:08.220Z,100167.05
2022-08-01T07:59:37.427Z,100170.21
2022-08-01T08:02:07.042Z,100167.56
2022-08-01T08:04:36.271Z,100169.93
2022-08-01T08:07:05.611Z,100173.44
2022-08-01T08:09:37.415Z,100172.30
2022-08-01T08:12:08.858Z,100171.99
2022-08-01T08:14:38.131Z,100175.88
2022-08-01T08:17:07.777Z,100177.02
2022-08-01T08:19:39.264Z,100179.20
2022-08-01T08:22:09.589Z,100180.16
2022-08-01T08:24:45.579Z,100177.36
2022-08-01T08:27:16.253Z,100180.23
2022-08-01T08:29:45.262Z,100178.50
2022-08-01T08:32:14.410Z,100184.34
2022-08-01T08:34:43.821Z,100185.51
2022-08-01T08:37:13.280Z,100184.33
2022-08-01T08:39:42.457Z,100181.49
2022-08-01T08:42:12.379Z,100185.79
2022-08-01T08:44:43.763Z,100190.36
2022-08-01T08:47:19.876Z,100187.71
2022-08-01T08:49:56.912Z,100191.52
2022-08-01T08:52:26.860Z,100188.35
2022-08-01T08:54:58.727Z,100190.83
2022-08-01T08:57:28.086Z,100184.67
2022-08-01T08:59:58.385Z,100185.45
2022-08-01T09:02:27.337Z,100184.09
2022-08-01T09:04:56.459Z,100191.94
2022-08-01T09:07:26.591Z,100191.06
2022-08-01T09:09:55.493Z,100186.81
2022-08-01T09:12:24.276Z,100186.27
2022-08-01T09:14:53.884Z,100184.23
2022-08-01T09:17:23.045Z,100191.39
2022-08-01T09:19:54.615Z,100194.60
2022-08-01T09:22:25.804Z,100203.23
2022-08-01T09:25:03.596Z,100204.36
2022-08-01T09:27:33.441Z,100201.39
2022-08-01T09:30:17.135Z,100201.48
2022-08-01T09:33:00.951Z,100201.97
2022-08-01T09:35:43.511Z,100206.20
2022-08-01T09:38:17.430Z,100204.46
2022-08-01T09:40:51.923Z,100207.29
2022-08-01T09:43:22.132Z,100213.38
2022-08-01T09:45:52.902Z,100215.13
2022-08-01T09:48:27.900Z,100212.98
2022-08-01T09:51:04.150Z,100212.27
2022-08-01T09:53:52.062Z,100205.77
2022-08-01T09:56:23.466Z,100204.00
2022-08-01T09:58:59.549Z,100208.45
2022-08-01T10:01:36.614Z,100210.65
2022-08-01T10:04:09.946Z,100210.06
2022-08-01T10:06:40.984Z,100212.20
2022-08-01T10:09:11.170Z,100211.70
2022-08-01T10:11:41.225Z,100209.84
2022-08-01T10:14:10.149Z,100212.30
2022-08-01T10:16:40.687Z,100211.93
2022-08-01T10:19:15.420Z,100207.13
2022-08-01T10:21:58.020Z,100205.46
2022-08-01T10:24:30.161Z,100205.29
2022-08-01T10:27:06.142Z,100204.72
2022-08-01T10:29:46.413Z,100202.52
2022-08-01T10:32:29.560Z,100203.11
2022-08-01T10:34:59.494Z,100197.72
2022-08-01T10:37:52.027Z,100198.13
2022-08-01T10:40:30.848Z,100194.27
2022-08-01T10:43:01.124Z,100189.09
2022-08-01T10:45:30.982Z,100184.38
2022-08-01T10:48:07.034Z,100185.72
2022-08-01T10:50:42.592Z,100184.46
2022-08-01T10:53:23.121Z,100185.56
2022-08-01T10:56:03.232Z,100188.02
2022-08-01T10:58:39.795Z,100186.27
2022-08-01T11:01:27.234Z,100178.77
2022-08-01T11:04:16.958Z,100175.20
2022-08-01T11:06:54.777Z,100178.80
2022-08-01T11:09:30.389Z,100185.95
2022-08-01T11:12:13.478Z,100180.70
2022-08-01T11:15:29.244Z,100181.60
2022-08-01T11:18:05.877Z,100183.56
2022-08-01T11:20:42.089Z,100182.20
2022-08-01T11:23:21.707Z,100184.92
2022-08-01T11:26:17.592Z,100176.27
2022-08-01T11:29:19.965Z,100177.64
2022-08-01T11:31:52.880Z,100170.55
2022-08-01T11:34:55.215Z,100167.41
2022-08-01T11:37:30.619Z,100166.59
2022-08-01T11:40:22.853Z,100170.54
2022-08-01T11:43:19.803Z,100167.79
2022-08-01T11:45:55.380Z,100169.20
2022-08-01T11:48:27.811Z,100168.52
2022-08-01T11:50:58.702Z,100164.55
2022-08-01T11:53:33.617Z,100163.77
2022-08-01T11:56:02.682Z,100163.09
2022-08-01T11:58:31.605Z,100164.25
2022-08-01T12:01:00.899Z,100167.09
2022-08-01T12:03:33.494Z,100162.89
2022-08-01T12:06:02.924Z,100159.20
2022-08-01T12:08:34.729Z,100167.68
2022-08-01T12:11:06.935Z,100164.75
2022-08-01T12:13:43.435Z,100165.89
2022-08-01T12:16:13.065Z,100162.29
2022-08-01T12:18:43.592Z,100160.20
2022-08-01T12:21:12.481Z,100155.80
2022-08-01T12:23:41.407Z,100152.75
2022-08-01T12:26:28.425Z,100157.30
2022-08-01T12:28:59.157Z,100157.19
2022-08-01T12:31:35.200Z,100155.33
2022-08-01T12:34:28.760Z,100158.41
2022-08-01T12:36:59.936Z,100149.64
2022-08-01T12:39:35.953Z,100153.36
2022-08-01T12:42:11.075Z,100151.98
2022-08-01T12:44:40.626Z,100150.30
2022-08-01T12:47:10.080Z,100143.29
2022-08-01T12:49:41.105Z,100139.48
2022-08-01T12:52:13.359Z,100136.36
2022-08-01T12:55:03.482Z,100136.56
2022-08-01T12:57:37.700Z,100133.71
2022-08-01T13:00:16.124Z,100131.45
2022-08-01T13:02:46.629Z,100129.45
2022-08-01T13:05:16.506Z,100130.14
2022-08-01T13:07:48.661Z,100128.48
2022-08-01T13:10:26.763Z,100125.36
2022-08-01T13:12:57.684Z,100127.20
2022-08-01T13:15:31.498Z,100126.22
2022-08-01T13:18:02.410Z,100124.27
2022-08-01T13:20:34.337Z,100123.52
2022-08-01T13:23:15.315Z,100123.55
2022-08-01T13:25:52.856Z,100124.11
2022-08-01T13:28:24.207Z,100123.58
2022-08-01T13:30:59.095Z,100119.17
2022-08-01T13:33:40.647Z,100121.98
2022-08-01T13:36:09.564Z,100118.09
2022-08-01T13:38:57.059Z,100118.57
2022-08-01T13:41:25.941Z,100122.10
2022-08-01T13:43:57.639Z,100126.17
2022-08-01T13:46:29.551Z,100132.51
2022-08-01T13:48:58.661Z,100136.10
2022-08-01T13:51:34.541Z,100137.09
2022-08-01T13:54:05.213Z,100139.17
2022-08-01T13:56:34.325Z,100136.57
2022-08-01T13:59:03.406Z,100135.43
2022-08-01T14:01:34.448Z,100139.62
2022-08-01T14:04:04.659Z,100141.50
2022-08-01T14:06:35.504Z,100136.86
2022-08-01T14:09:17.763Z,100132.65
2022-08-01T14:11:47.628Z,100134.95
2022-08-01T14:14:16.592Z,100131.13
2022-08-01T14:16:46.049Z,100136.00
2022-08-01T14:19:17.054Z,100130.69
2022-08-01T14:21:45.899Z,100127.74
2022-08-01T14:24:14.752Z,100131.09
2022-08-01T14:26:43.553Z,100139.27
2022-08-01T14:29:12.439Z,100131.68
2022-08-01T14:31:41.338Z,100134.23
2022-08-01T14:34:10.196Z,100137.21
2022-08-01T14:36:39.111Z,100132.85
2022-08-01T14:39:08.153Z,100133.77
2022-08-01T14:41:43.798Z,100131.42
2022-08-01T14:44:15.446Z,100130.39
2022-08-01T14:46:57.731Z,100131.52
2022-08-01T14:49:27.986Z,100131.18
2022-08-01T14:51:56.993Z,100133.32
2022-08-01T14:54:29.053Z,100134.02
2022-08-01T14:56:58.894Z,100136.48
2022-08-01T14:59:27.732Z,100135.08
2022-08-01T15:01:56.448Z,100137.02
2022-08-01T15:04:25.627Z,100133.48
2022-08-01T15:06:54.438Z,100137.68
2022-08-01T15:09:24.056Z,100142.00
2022-08-01T15:11:53.157Z,100147.85
2022-08-01T15:14:40.213Z,100144.58
2022-08-01T15:17:09.056Z,100149.71
2022-08-01T15:19:42.007Z,100144.57
2022-08-01T15:22:11.559Z,100144.78
2022-08-01T15:24:40.564Z,100141.08
2022-08-01T15:27:09.860Z,100140.32
2022-08-01T15:29:39.169Z,100136.98
2022-08-01T15:32:09.481Z,100137.86
2022-08-01T15:34:39.390Z,100137.52
2022-08-01T15:37:10.330Z,100139.48
2022-08-01T15:39:39.943Z,100141.02
2022-08-01T15:42:11.009Z,100143.31
2022-08-01T15:44:40.176Z,100142.06
2022-08-01T15:47:10.304Z,100144.09
2022-08-01T15:49:39.369Z,100147.95
2022-08-01T15:52:22.262Z,100146.10
2022-08-01T15:54:51.899Z,100147.64
2022-08-01T15:57:21.124Z,100146.96
2022-08-01T15:59:49.974Z,100151.90
2022-08-01T16:02:18.879Z,100152.43
2022-08-01T16:04:47.802Z,100153.41
2022-08-01T16:07:16.631Z,100156.81
2022-08-01T16:09:45.674Z,100159.48
2022-08-01T16:12:14.450Z,100160.63
2022-08-01T16:14:43.183Z,100161.08
2022-08-01T16:17:12.189Z,100161.51
2022-08-01T16:19:41.535Z,100166.38
2022-08-01T16:22:10.548Z,100169.49
2022-08-01T16:24:39.462Z,100167.15
2022-08-01T16:27:08.637Z,100168.18
2022-08-01T16:29:37.749Z,100170.30
2022-08-01T16:32:34.285Z,100169.98
2022-08-01T16:34:56.086Z,100173.43
2022-08-01T16:37:24.975Z,100174.96
2022-08-01T16:39:53.881Z,100178.08
2022-08-01T16:42:27.674Z,100183.59
2022-08-01T16:44:58.924Z,100185.50
2022-08-01T16:47:27.723Z,100188.55
2022-08-01T16:49:56.541Z,100187.98
2022-08-01T16:52:28.759Z,100191.23
2022-08-01T16:54:57.935Z,100191.02
2022-08-01T16:57:26.790Z,100194.94
2022-08-01T16:59:55.631Z,100196.67
2022-08-01T17:02:25.278Z,100195.85
2022-08-01T17:04:54.114Z,100194.78
2022-08-01T17:07:22.987Z,100189.75
2022-08-01T17:09:51.866Z,100193.90
2022-08-01T17:12:22.481Z,100192.69
2022-08-01T17:14:52.033Z,100194.64
2022-08-01T17:17:20.925Z,100196.15
2022-08-01T17:19:50.553Z,100194.00
2022-08-01T17:22:19.950Z,100190.70
2022-08-01T17:24:50.456Z,100197.19
2022-08-01T17:27:19.454Z,100195.09
2022-08-01T17:29:48.340Z,100196.84
2022-08-01T17:32:17.208Z,100196.98
2022-08-01T17:34:46.021Z,100201.20
2022-08-01T17:37:14.974Z,100198.77
2022-08-01T17:39:43.907Z,100205.60
2022-08-01T17:42:12.735Z,100202.98
2022-08-01T17:44:41.834Z,100211.36
2022-08-01T17:47:40.939Z,100212.40
2022-08-01T17:50:09.858Z,100217.08
2022-08-01T17:52:38.863Z,100221.70
2022-08-01T17:55:55.626Z,100226.30
2022-08-01T17:57:57.866Z,100229.36
2022-08-01T18:00:30.859Z,100233.52
2022-08-01T18:02:59.652Z,100237.16
2022-08-01T18:05:37.164Z,100238.36
2022-08-01T18:08:07.772Z,100244.22
2022-08-01T18:10:36.576Z,100247.92
2022-08-01T18:13:09.087Z,100252.80
2022-08-01T18:15:38.138Z,100255.02
2022-08-01T18:18:08.035Z,100254.77
2022-08-01T18:20:36.895Z,100259.60
2022-08-01T18:23:09.431Z,100260.20
2022-08-01T18:25:38.612Z,100261.54
2022-08-01T18:28:23.388Z,100266.67
2022-08-01T18:30:57.047Z,100274.18
2022-08-01T18:33:25.789Z,100278.88
2022-08-01T18:35:55.679Z,100276.55
2022-08-01T18:38:31.652Z,100279.83
2022-08-01T18:41:00.564Z,100286.18
2022-08-01T18:43:29.710Z,100293.67
2022-08-01T18:46:00.597Z,100296.77
2022-08-01T18:48:29.708Z,100302.77
2022-08-01T18:51:00.293Z,100305.86
2022-08-01T18:53:29.471Z,100310.20
2022-08-01T18:55:58.260Z,100311.52
2022-08-01T18:58:27.533Z,100312.84
2022-08-01T19:00:56.377Z,100315.27
2022-08-01T19:03:25.208Z,100314.17
2022-08-01T19:05:53.999Z,100316.27
2022-08-01T19:08:22.913Z,100314.89
2022-08-01T19:10:52.048Z,100317.39
2022-08-01T19:13:20.897Z,100319.55
2022-08-01T19:15:49.739Z,100320.41
2022-08-01T19:18:19.108Z,100326.11
2022-08-01T19:20:48.025Z,100328.43
2022-08-01T19:23:35.226Z,100333.30
2022-08-01T19:26:09.142Z,100338.39
2022-08-01T19:28:45.971Z,100337.75
2022-08-01T19:31:15.099Z,100339.59
2022-08-01T19:33:44.519Z,100339.30
2022-08-01T19:36:16.695Z,100342.14
2022-08-01T19:38:46.286Z,100339.60
2022-08-01T19:41:17.458Z,100343.13
2022-08-01T19:43:47.446Z,100344.81
2022-08-01T19:46:18.261Z,100351.42
2022-08-01T19:48:53.612Z,100352.05
2022-08-01T19:51:33.609Z,100352.37
2022-08-01T19:54:06.286Z,100353.50
2022-08-01T19:56:39.973Z,100353.58
2022-08-01T19:59:09.574Z,100353.27
2022-08-01T20:01:38.411Z,100354.81
2022-08-01T20:04:08.593Z,100356.67
2022-08-01T20:06:38.058Z,100358.00
2022-08-01T20:09:07.581Z,100360.36
2022-08-01T20:11:36.541Z,100358.98
2022-08-01T20:14:05.515Z,100359.50
2022-08-01T20:16:34.868Z,100355.94
2022-08-01T20:19:04.508Z,100356.95
2022-08-01T20:21:35.332Z,100357.33
2022-08-01T20:24:09.852Z,100362.13
2022-08-01T20:26:39.782Z,100368.39
2022-08-01T20:29:09.154Z,100366.09
2022-08-01T20:31:43.825Z,100369.77
2022-08-01T20:34:16.764Z,100370.86
2022-08-01T20:36:54.535Z,100369.05
2022-08-01T20:39:26.759Z,100366.20
2022-08-01T20:41:59.559Z,100365.23
2022-08-01T20:44:31.060Z,100366.89
2022-08-01T20:47:01.022Z,100367.60
2022-08-01T20:49:31.692Z,100369.06
2022-08-01T20:52:00.728Z,100365.70
2022-08-01T20:54:42.316Z,100362.66
2022-08-01T20:57:20.257Z,100363.98
2022-08-01T20:59:56.548Z,100360.82
2022-08-01T21:02:37.379Z,100360.20
2022-08-01T21:05:10.157Z,100358.27
2022-08-01T21:07:48.344Z,100358.64
2022-08-01T21:10:18.830Z,100362.23
2022-08-01T21:12:50.436Z,100364.54
2022-08-01T21:15:29.806Z,100365.47
2022-08-01T21:18:03.660Z,100363.14
2022-08-01T21:20:35.641Z,100360.14
2022-08-01T21:23:16.814Z,100364.16
2022-08-01T21:25:47.347Z,100362.10
2022-08-01T21:28:16.151Z,100367.52
2022-08-01T21:30:55.471Z,100371.98
2022-08-01T21:33:26.130Z,100373.59
2022-08-01T21:36:00.187Z,100371.15
2022-08-01T21:38:35.754Z,100372.34
2022-08-01T21:41:06.935Z,100373.96
2022-08-01T21:43:38.459Z,100374.46
2022-08-01T21:46:09.089Z,100375.71
2022-08-01T21:48:38.811Z,100376.59
2022-08-01T21:51:21.915Z,100372.30
2022-08-01T21:54:07.077Z,100375.28
2022-08-01T21:56:49.312Z,100369.31
2022-08-01T21:59:24.155Z,100369.14
2022-08-01T22:02:01.242Z,100370.70
2022-08-01T22:04:38.203Z,100368.86
2022-08-01T22:07:10.685Z,100367.15
2022-08-01T22:09:44.087Z,100369.87
2022-08-01T22:12:17.866Z,100367.15
2022-08-01T22:14:53.406Z,100373.51
2022-08-01T22:17:24.251Z,100373.51
2022-08-01T22:19:55.680Z,100381.55
2022-08-01T22:22:50.744Z,100382.70
2022-08-01T22:25:14.437Z,100384.86
2022-08-01T22:28:08.653Z,100386.67
2022-08-01T22:30:34.766Z,100386.61
2022-08-01T22:33:07.957Z,100389.16
2022-08-01T22:35:47.322Z,100390.73
2022-08-01T22:38:18.256Z,100389.17
2022-08-01T22:40:50.431Z,100395.44
2022-08-01T22:43:26.421Z,100389.11
2022-08-01T22:46:09.207Z,100390.20
2022-08-01T22:48:44.925Z,100391.48
2022-08-01T22:51:23.443Z,100387.89
2022-08-01T22:54:01.367Z,100390.27
2022-08-01T22:56:31.981Z,100390.89
2022-08-01T22:59:06.215Z,100391.52
2022-08-01T23:01:37.984Z,100387.71
2022-08-01T23:04:11.980Z,100388.28
2022-08-01T23:06:43.192Z,100388.73
2022-08-01T23:09:13.098Z,100386.77
2022-08-01T23:11:42.022Z,100387.80
2022-08-01T23:14:11.608Z,100390.91
2022-08-01T23:16:41.972Z,100397.73
2022-08-01T23:19:11.744Z,100397.92
2022-08-01T23:21:42.500Z,100398.15
2022-08-01T23:24:13.936Z,100399.35
2022-08-01T23:26:43.869Z,100399.55
2022-08-01T23:29:13.096Z,100397.17
2022-08-01T23:31:58.240Z,100394.45
2022-08-01T23:34:30.741Z,100394.58
2022-08-01T23:36:59.633Z,100394.68
2022-08-01T23:39:28.561Z,100390.06
2022-08-01T23:41:59.535Z,100392.95
2022-08-01T23:44:30.168Z,100391.19
2022-08-01T23:46:59.005Z,100393.38
2022-08-01T23:49:28.325Z,100392.91
2022-08-01T23:51:57.283Z,100394.52
2022-08-01T23:54:26.147Z,100389.23
2022-08-01T23:56:55.333Z,100395.50
2022-08-01T23:59:24.116Z,100401.63
